Pontos — WDC8486 — position and weather

sailwx.info

Track history (hours):
 
Tides and Currents Weather Stations Pressure Air Temp Water Temp Dewpoint Dewpoint Depression Visibility Wind Speed Wind Dir Waves Ship Positions

Pontos

Owner: Pontos Fisheries, Inc., Montauk, NY. More information available from US FCC via Universal Licensing System and Coast Guard Vessel Documentation Center.

Last reported at 2015-Aug-20 05:31 UTC. Time now 2015-Aug-28 19:11 UTC.
Position N 39°09' W 074°37'.
Warning: this ship's position is 8 days out of date.

Length 31 m.

Type: Fishing. MMSI: 367087860.

Date/timePositionNaut miles runAvg speedWind from/ knotsBaromVisibWave heightAir tempDewpointWater temp
2015-Aug-20 05:31N 39°09' W 074°37'6 4.9
2015-Aug-20 04:19N 39°14' W 074°33'21 6.8
2015-Aug-20 01:09N 39°24' W 074°08'51 2.6
2015-Aug-19 05:27N 39°34' W 073°03'0 0.5
2015-Aug-19 04:33N 39°34' W 073°03'0 0.2
2015-Aug-19 03:33N 39°34' W 073°03'2 2.0
2015-Aug-19 02:32N 39°36' W 073°01'1 0.4
2015-Aug-19 01:18N 39°36' W 072°60'1 0.7
2015-Aug-18 23:33N 39°35' W 073°01'2 1.7
2015-Aug-18 22:33N 39°37' W 073°01'1 0.6
2015-Aug-18 21:29N 39°37' W 073°02'2 2.1
2015-Aug-18 20:31N 39°37' W 072°59'1 0.8
2015-Aug-18 19:33N 39°38' W 072°58'2 1.8
2015-Aug-18 18:22N 39°37' W 073°01'1 1.0
2015-Aug-18 17:24N 39°36' W 073°02'3 3.2
2015-Aug-18 16:24N 39°37' W 072°58'3 3.0
2015-Aug-18 15:33N 39°37' W 073°01'1 0.5
2015-Aug-18 14:28N 39°38' W 073°02'0 0.4
2015-Aug-18 13:33N 39°37' W 073°02'1 1.1
2015-Aug-18 12:33N 39°37' W 073°00'1 1.1
2015-Aug-18 11:12N 39°37' W 073°02'2 0.6
2015-Aug-18 08:33N 39°37' W 072°60'0 0.5
2015-Aug-18 07:33N 39°38' W 073°00'1 0.8
2015-Aug-18 06:33N 39°38' W 073°02'1 0.8
2015-Aug-18 05:33N 39°37' W 073°01'0 0.1
2015-Aug-18 03:56N 39°37' W 073°00'2 3.2
2015-Aug-18 03:16N 39°37' W 072°58'3 3.8
2015-Aug-18 02:33N 39°38' W 073°01'2 1.9
2015-Aug-18 01:31N 39°38' W 072°59'1 0.6
2015-Aug-17 23:08N 39°38' W 073°00'1 2.0
2015-Aug-17 22:33N 39°37' W 072°59'2 1.9
2015-Aug-17 21:34N 39°36' W 072°60'2 1.6
2015-Aug-17 20:33N 39°36' W 073°02'1 1.0
2015-Aug-17 19:33N 39°37' W 073°02'0 0.1
2015-Aug-17 18:32N 39°36' W 073°02'1 0.9
2015-Aug-17 17:33N 39°37' W 073°02'1 0.9
2015-Aug-17 16:30N 39°38' W 073°02'1 0.6
2015-Aug-17 15:33N 39°38' W 073°01'1 0.9
2015-Aug-17 14:29N 39°37' W 073°02'1 1.3
2015-Aug-17 13:33N 39°38' W 073°00'1 1.2
2015-Aug-17 12:34N 39°37' W 073°02'1 0.8
2015-Aug-17 11:33N 39°37' W 073°01'0 0.2
2015-Aug-17 09:33N 39°38' W 073°00'1 0.6
2015-Aug-17 08:28N 39°38' W 073°01'0 0.3
2015-Aug-17 07:34N 39°38' W 073°01'4 4.1
2015-Aug-17 06:33N 39°34' W 073°03'2 2.3
2015-Aug-17 05:31N 39°36' W 073°02'4 4.4
2015-Aug-17 04:33N 39°32' W 073°03'3 3.0
2015-Aug-17 03:33N 39°35' W 073°02'0 0.3
2015-Aug-17 02:33N 39°35' W 073°02'1 0.5
2015-Aug-17 01:33N 39°36' W 073°02'1 1.0
2015-Aug-17 00:33N 39°35' W 073°02'0 0.2
2015-Aug-16 23:34N 39°35' W 073°02'0 0.2
2015-Aug-16 22:33N 39°34' W 073°02'1 0.5
2015-Aug-16 21:21N 39°35' W 073°02'1 0.3
2015-Aug-16 19:07N 39°35' W 073°02'2 3.3
2015-Aug-16 18:34N 39°34' W 073°03'0 0.3
2015-Aug-16 17:33N 39°34' W 073°03'1 0.2
2015-Aug-16 15:07N 39°35' W 073°02'0 0.1
2015-Aug-16 13:30N 39°35' W 073°02'4 3.8
2015-Aug-16 12:33N 39°33' W 073°06'3 2.9
2015-Aug-16 11:30N 39°32' W 073°10'15 1.9
2015-Aug-16 03:33N 39°19' W 073°21'3 2.6
2015-Aug-16 02:32N 39°22' W 073°22'3 2.4
2015-Aug-16 01:26N 39°19' W 073°20'6 4.5
2015-Aug-16 00:05N 39°14' W 073°24'2 4.0
2015-Aug-15 23:33N 39°13' W 073°26'2 0.7
2015-Aug-15 20:33N 39°12' W 073°28'2 0.8
2015-Aug-15 18:20N 39°11' W 073°30'2 2.7
2015-Aug-15 17:34N 39°12' W 073°28'0 0.1
2015-Aug-15 16:21N 39°12' W 073°28'0 0.1
2015-Aug-15 07:32N 39°11' W 073°28'0 0.1
2015-Aug-15 06:32N 39°11' W 073°28'4 3.9
2015-Aug-15 05:34N 39°09' W 073°32'4 2.4
2015-Aug-15 04:04N 39°11' W 073°28'3 0.2
2015-Aug-14 14:07N 39°08' W 073°28'2 0.8
2015-Aug-14 11:20N 39°08' W 073°31'1 1.1
2015-Aug-14 10:33N 39°08' W 073°31'5 2.7
2015-Aug-14 08:33N 39°13' W 073°28'12 2.0
2015-Aug-14 02:33N 39°01' W 073°33'1 0.5
2015-Aug-14 01:29N 39°02' W 073°33'  
Track history (hours):
 
Tides and Currents Weather Stations Pressure Air Temp Water Temp Dewpoint Dewpoint Depression Visibility Wind Speed Wind Dir Waves Ship Positions

Pontos

Owner: Pontos Fisheries, Inc., Montauk, NY. More information available from US FCC via Universal Licensing System and Coast Guard Vessel Documentation Center.

Last reported at 2015-Aug-20 05:31 UTC. Time now 2015-Aug-28 19:11 UTC.
Position N 39°09' W 074°37'.
Warning: this ship's position is 8 days out of date.

Length 31 m.

Type: Fishing. MMSI: 367087860.

Date/timePositionNaut miles runAvg speedWind from/ knotsBaromVisibWave heightAir tempDewpointWater temp
2015-Aug-20 05:31N 39°09' W 074°37'6 4.9
2015-Aug-20 04:19N 39°14' W 074°33'21 6.8
2015-Aug-20 01:09N 39°24' W 074°08'51 2.6
2015-Aug-19 05:27N 39°34' W 073°03'0 0.5
2015-Aug-19 04:33N 39°34' W 073°03'0 0.2
2015-Aug-19 03:33N 39°34' W 073°03'2 2.0
2015-Aug-19 02:32N 39°36' W 073°01'1 0.4
2015-Aug-19 01:18N 39°36' W 072°60'1 0.7
2015-Aug-18 23:33N 39°35' W 073°01'2 1.7
2015-Aug-18 22:33N 39°37' W 073°01'1 0.6
2015-Aug-18 21:29N 39°37' W 073°02'2 2.1
2015-Aug-18 20:31N 39°37' W 072°59'1 0.8
2015-Aug-18 19:33N 39°38' W 072°58'2 1.8
2015-Aug-18 18:22N 39°37' W 073°01'1 1.0
2015-Aug-18 17:24N 39°36' W 073°02'3 3.2
2015-Aug-18 16:24N 39°37' W 072°58'3 3.0
2015-Aug-18 15:33N 39°37' W 073°01'1 0.5
2015-Aug-18 14:28N 39°38' W 073°02'0 0.4
2015-Aug-18 13:33N 39°37' W 073°02'1 1.1
2015-Aug-18 12:33N 39°37' W 073°00'1 1.1
2015-Aug-18 11:12N 39°37' W 073°02'2 0.6
2015-Aug-18 08:33N 39°37' W 072°60'0 0.5
2015-Aug-18 07:33N 39°38' W 073°00'1 0.8
2015-Aug-18 06:33N 39°38' W 073°02'1 0.8
2015-Aug-18 05:33N 39°37' W 073°01'0 0.1
2015-Aug-18 03:56N 39°37' W 073°00'2 3.2
2015-Aug-18 03:16N 39°37' W 072°58'3 3.8
2015-Aug-18 02:33N 39°38' W 073°01'2 1.9
2015-Aug-18 01:31N 39°38' W 072°59'1 0.6
2015-Aug-17 23:08N 39°38' W 073°00'1 2.0
2015-Aug-17 22:33N 39°37' W 072°59'2 1.9
2015-Aug-17 21:34N 39°36' W 072°60'2 1.6
2015-Aug-17 20:33N 39°36' W 073°02'1 1.0
2015-Aug-17 19:33N 39°37' W 073°02'0 0.1
2015-Aug-17 18:32N 39°36' W 073°02'1 0.9
2015-Aug-17 17:33N 39°37' W 073°02'1 0.9
2015-Aug-17 16:30N 39°38' W 073°02'1 0.6
2015-Aug-17 15:33N 39°38' W 073°01'1 0.9
2015-Aug-17 14:29N 39°37' W 073°02'1 1.3
2015-Aug-17 13:33N 39°38' W 073°00'1 1.2
2015-Aug-17 12:34N 39°37' W 073°02'1 0.8
2015-Aug-17 11:33N 39°37' W 073°01'0 0.2
2015-Aug-17 09:33N 39°38' W 073°00'1 0.6
2015-Aug-17 08:28N 39°38' W 073°01'0 0.3
2015-Aug-17 07:34N 39°38' W 073°01'4 4.1
2015-Aug-17 06:33N 39°34' W 073°03'2 2.3
2015-Aug-17 05:31N 39°36' W 073°02'4 4.4
2015-Aug-17 04:33N 39°32' W 073°03'3 3.0
2015-Aug-17 03:33N 39°35' W 073°02'0 0.3
2015-Aug-17 02:33N 39°35' W 073°02'1 0.5
2015-Aug-17 01:33N 39°36' W 073°02'1 1.0
2015-Aug-17 00:33N 39°35' W 073°02'0 0.2
2015-Aug-16 23:34N 39°35' W 073°02'0 0.2
2015-Aug-16 22:33N 39°34' W 073°02'1 0.5
2015-Aug-16 21:21N 39°35' W 073°02'1 0.3
2015-Aug-16 19:07N 39°35' W 073°02'2 3.3
2015-Aug-16 18:34N 39°34' W 073°03'0 0.3
2015-Aug-16 17:33N 39°34' W 073°03'1 0.2
2015-Aug-16 15:07N 39°35' W 073°02'0 0.1
2015-Aug-16 13:30N 39°35' W 073°02'4 3.8
2015-Aug-16 12:33N 39°33' W 073°06'3 2.9
2015-Aug-16 11:30N 39°32' W 073°10'15 1.9
2015-Aug-16 03:33N 39°19' W 073°21'3 2.6
2015-Aug-16 02:32N 39°22' W 073°22'3 2.4
2015-Aug-16 01:26N 39°19' W 073°20'6 4.5
2015-Aug-16 00:05N 39°14' W 073°24'2 4.0
2015-Aug-15 23:33N 39°13' W 073°26'2 0.7
2015-Aug-15 20:33N 39°12' W 073°28'2 0.8
2015-Aug-15 18:20N 39°11' W 073°30'2 2.7
2015-Aug-15 17:34N 39°12' W 073°28'0 0.1
2015-Aug-15 16:21N 39°12' W 073°28'0 0.1
2015-Aug-15 07:32N 39°11' W 073°28'0 0.1
2015-Aug-15 06:32N 39°11' W 073°28'4 3.9
2015-Aug-15 05:34N 39°09' W 073°32'4 2.4
2015-Aug-15 04:04N 39°11' W 073°28'3 0.2
2015-Aug-14 14:07N 39°08' W 073°28'2 0.8
2015-Aug-14 11:20N 39°08' W 073°31'1 1.1
2015-Aug-14 10:33N 39°08' W 073°31'5 2.7
2015-Aug-14 08:33N 39°13' W 073°28'12 2.0
2015-Aug-14 02:33N 39°01' W 073°33'1 0.5
2015-Aug-14 01:29N 39°02' W 073°33'  

Dump ship's entire track history